Time;durP1;ratioP1;P1;durP2;ratioP2;P2;SDS_P1;SDS_P2;PMS_P1;PMS_P2;Temp;Humidity;BMP_temperature;BMP_pressure;BME280_temperature;BME280_humidity;BME280_pressure;Samples;Min_cycle;Max_cycle;Signal;HPM_P1;HPM_P2
2021/01/22 00:02:06;;;;;;;138.15;63.38;;;5.20;99.90;;;;;;5063454;28;20031;-83
2021/01/22 00:04:31;;;;;;;126.75;60.55;;;5.20;99.90;;;;;;5057569;28;20028;-83
2021/01/22 00:06:57;;;;;;;124.43;60.67;;;5.20;99.90;;;;;;5074152;28;20035;-84
2021/01/22 00:09:23;;;;;;;122.78;61.20;;;5.20;99.90;;;;;;5074046;28;20028;-84
2021/01/22 00:11:49;;;;;;;131.27;59.03;;;5.20;99.90;;;;;;5073879;28;20112;-84
2021/01/22 00:14:15;;;;;;;125.18;60.35;;;5.20;99.90;;;;;;5074026;28;20021;-83
2021/01/22 00:16:40;;;;;;;134.63;61.65;;;5.20;99.90;;;;;;5094464;28;20032;-83
2021/01/22 00:19:06;;;;;;;119.97;60.20;;;5.20;99.90;;;;;;5074875;28;20024;-83
2021/01/22 00:21:32;;;;;;;133.10;60.72;;;5.20;99.90;;;;;;5074976;28;20082;-83
2021/01/22 00:23:58;;;;;;;110.22;56.00;;;5.20;99.90;;;;;;5057190;28;20020;-83
2021/01/22 00:26:24;;;;;;;122.32;58.92;;;5.20;99.90;;;;;;5056965;28;20035;-83
2021/01/22 00:28:49;;;;;;;117.65;57.15;;;5.20;99.90;;;;;;5056995;28;20036;-84
2021/01/22 00:31:15;;;;;;;122.45;56.88;;;5.30;99.90;;;;;;5056806;28;20035;-83
2021/01/22 00:33:41;;;;;;;115.72;53.88;;;5.30;99.90;;;;;;5056921;28;20066;-83
2021/01/22 00:36:06;;;;;;;109.65;54.45;;;5.30;99.90;;;;;;5057143;28;20063;-84
2021/01/22 00:38:32;;;;;;;107.03;53.15;;;5.30;99.90;;;;;;5057081;28;20016;-84
2021/01/22 00:40:58;;;;;;;121.40;57.42;;;5.30;99.90;;;;;;5056976;28;20078;-84
2021/01/22 00:43:24;;;;;;;119.07;57.17;;;5.20;99.90;;;;;;5056778;28;20029;-84
2021/01/22 00:45:50;;;;;;;127.20;56.53;;;5.20;99.90;;;;;;5056704;28;20056;-84
2021/01/22 00:48:15;;;;;;;119.65;55.97;;;5.30;99.90;;;;;;5074543;28;20021;-83
2021/01/22 00:50:41;;;;;;;120.55;57.20;;;5.30;99.90;;;;;;5056433;28;20020;-83
2021/01/22 00:53:06;;;;;;;119.78;56.40;;;5.30;99.90;;;;;;5056764;28;20029;-84
2021/01/22 00:55:32;;;;;;;134.10;61.00;;;5.20;99.90;;;;;;5056502;28;20021;-84
2021/01/22 00:57:58;;;;;;;129.43;58.47;;;5.20;99.90;;;;;;5056577;28;20025;-83
2021/01/22 01:00:23;;;;;;;122.13;58.08;;;5.20;99.90;;;;;;5056577;28;20027;-84
2021/01/22 01:02:49;;;;;;;135.20;59.92;;;5.20;99.90;;;;;;5073044;28;20636;-84
2021/01/22 01:05:15;;;;;;;135.90;61.55;;;5.20;99.90;;;;;;5056592;28;20389;-84
2021/01/22 01:07:41;;;;;;;127.32;60.17;;;5.20;99.90;;;;;;5074043;28;20024;-84
2021/01/22 01:10:07;;;;;;;133.20;58.90;;;5.20;99.90;;;;;;5055766;28;20494;-84
2021/01/22 01:12:34;;;;;;;134.25;62.60;;;5.20;99.90;;;;;;5073954;28;20108;-84
2021/01/22 01:14:59;;;;;;;135.60;58.72;;;5.20;99.90;;;;;;5055602;28;20170;-84
2021/01/22 01:17:25;;;;;;;132.23;59.40;;;5.10;99.90;;;;;;5055822;28;20040;-83
2021/01/22 01:19:51;;;;;;;124.90;56.40;;;5.10;99.90;;;;;;5073659;28;20032;-84
2021/01/22 01:22:17;;;;;;;118.78;56.53;;;5.10;99.90;;;;;;5073672;28;20111;-84
2021/01/22 01:24:42;;;;;;;118.35;56.38;;;5.10;99.90;;;;;;5055481;28;20115;-84
2021/01/22 01:27:08;;;;;;;111.65;55.03;;;5.10;99.90;;;;;;5055660;28;20029;-84
2021/01/22 01:29:34;;;;;;;118.22;54.13;;;5.20;99.90;;;;;;5055693;28;20029;-84
2021/01/22 01:31:59;;;;;;;122.75;56.22;;;5.20;99.90;;;;;;5073605;28;20055;-84
2021/01/22 01:34:25;;;;;;;115.47;54.15;;;5.20;99.90;;;;;;5055997;28;20028;-84
2021/01/22 01:36:51;;;;;;;110.93;54.08;;;5.20;99.90;;;;;;5072996;28;20032;-83
2021/01/22 01:39:17;;;;;;;119.32;56.13;;;5.20;99.90;;;;;;5060347;28;20024;-84
2021/01/22 01:41:42;;;;;;;125.93;56.95;;;5.20;99.90;;;;;;5055544;28;20131;-83
2021/01/22 01:44:08;;;;;;;116.20;55.58;;;5.20;99.90;;;;;;5055497;28;20032;-84
2021/01/22 01:46:34;;;;;;;117.10;56.25;;;5.20;99.90;;;;;;5066717;28;20173;-84
2021/01/22 01:49:01;;;;;;;120.90;54.53;;;5.20;99.90;;;;;;5092963;28;20077;-84
2021/01/22 01:51:26;;;;;;;123.80;57.72;;;5.20;99.90;;;;;;5093667;28;20036;-85
2021/01/22 01:53:52;;;;;;;116.45;55.10;;;5.20;99.90;;;;;;5093323;28;20035;-84
2021/01/22 01:56:18;;;;;;;107.00;53.33;;;5.20;99.90;;;;;;5093379;28;20107;-84
2021/01/22 01:58:44;;;;;;;123.95;56.20;;;5.30;99.90;;;;;;5093650;28;20366;-84
2021/01/22 02:01:12;;;;;;;124.13;57.63;;;5.30;99.90;;;;;;5093439;28;20024;-83
2021/01/22 02:03:37;;;;;;;124.43;57.22;;;5.30;99.90;;;;;;5093573;28;20024;-84
2021/01/22 02:06:04;;;;;;;130.75;60.53;;;5.30;99.90;;;;;;5075438;28;20032;-84
2021/01/22 02:08:31;;;;;;;127.93;61.25;;;5.30;99.90;;;;;;5075493;28;20024;-84
2021/01/22 02:11:03;;;;;;;127.85;60.47;;;5.30;99.90;;;;;;5093215;28;20019;-84
2021/01/22 02:13:30;;;;;;;122.03;57.80;;;5.30;99.90;;;;;;5077570;28;20025;-83
2021/01/22 02:15:58;;;;;;;119.47;58.55;;;5.30;99.90;;;;;;5054745;28;20029;-83
2021/01/22 02:18:25;;;;;;;111.28;54.22;;;5.30;99.90;;;;;;5062185;28;20534;-83
2021/01/22 02:21:19;;;;;;;113.88;51.33;;;5.30;99.90;;;;;;5108980;28;20523;-83
2021/01/22 02:23:46;;;;;;;104.93;49.58;;;5.30;99.90;;;;;;5075355;28;20127;-84
2021/01/22 02:26:18;;;;;;;98.85;47.08;;;5.30;99.90;;;;;;5093212;28;20024;-84
2021/01/22 02:28:47;;;;;;;92.72;45.53;;;5.30;99.90;;;;;;5075456;28;20028;-83
2021/01/22 02:31:15;;;;;;;88.00;44.00;;;5.30;99.90;;;;;;5074976;28;20020;-84
2021/01/22 02:33:43;;;;;;;92.35;43.58;;;5.30;99.90;;;;;;5075156;28;20137;-84
2021/01/22 02:36:11;;;;;;;92.47;45.42;;;5.30;99.90;;;;;;5093049;28;20028;-82
2021/01/22 02:38:39;;;;;;;92.75;46.97;;;5.20;99.90;;;;;;5093300;28;20023;-83
2021/01/22 02:41:05;;;;;;;95.03;46.28;;;5.30;99.90;;;;;;5075016;28;20027;-83
2021/01/22 02:43:32;;;;;;;94.95;45.65;;;5.30;99.90;;;;;;5093047;28;20103;-83
2021/01/22 02:45:58;;;;;;;88.80;42.97;;;5.30;99.90;;;;;;5074564;28;20044;-83
2021/01/22 02:48:24;;;;;;;92.75;44.42;;;5.30;99.90;;;;;;5079550;28;20038;-83
2021/01/22 02:50:49;;;;;;;88.35;42.08;;;5.40;99.90;;;;;;5074762;28;20024;-83
2021/01/22 02:53:15;;;;;;;84.10;40.78;;;5.40;99.90;;;;;;5075066;28;20131;-84
2021/01/22 02:55:41;;;;;;;86.45;41.88;;;5.40;99.90;;;;;;5092849;28;20021;-84
2021/01/22 02:58:40;;;;;;;85.85;43.33;;;5.40;99.90;;;;;;5074764;28;20107;-84
2021/01/22 03:01:09;;;;;;;93.10;44.78;;;5.40;99.90;;;;;;5072182;28;20050;-83
2021/01/22 03:03:41;;;;;;;95.28;45.83;;;5.40;99.90;;;;;;5074847;28;20024;-83
2021/01/22 03:06:09;;;;;;;100.13;47.35;;;5.40;99.90;;;;;;5074229;28;20401;-83
2021/01/22 03:08:36;;;;;;;93.43;43.42;;;5.40;99.90;;;;;;5074788;28;20489;-83
2021/01/22 03:11:05;;;;;;;77.47;41.58;;;5.40;99.90;;;;;;5074539;28;20024;-83
2021/01/22 03:13:32;;;;;;;84.22;42.40;;;5.40;99.90;;;;;;5074117;28;20031;-82
2021/01/22 03:16:00;;;;;;;81.20;41.33;;;5.40;99.90;;;;;;5073862;28;20110;-83
2021/01/22 03:18:25;;;;;;;84.70;41.83;;;5.40;99.90;;;;;;5092011;28;20047;-82
2021/01/22 03:20:51;;;;;;;86.28;41.35;;;5.50;99.90;;;;;;5092681;28;20477;-84
2021/01/22 03:23:18;;;;;;;77.53;39.40;;;5.40;99.90;;;;;;5074154;28;20115;-83
2021/01/22 03:25:45;;;;;;;87.18;40.22;;;5.50;99.90;;;;;;5074545;28;20549;-83
2021/01/22 03:28:11;;;;;;;86.25;42.83;;;5.50;99.90;;;;;;5094612;28;20023;-83
2021/01/22 03:30:37;;;;;;;85.53;41.92;;;5.40;99.90;;;;;;5077514;28;20028;-84
2021/01/22 03:33:03;;;;;;;85.25;43.08;;;5.50;99.90;;;;;;5077799;28;20031;-84
2021/01/22 03:35:29;;;;;;;87.50;41.88;;;5.40;99.90;;;;;;5095761;28;20036;-82
2021/01/22 03:37:56;;;;;;;77.72;38.25;;;5.40;99.90;;;;;;5077809;28;20024;-83
2021/01/22 03:40:23;;;;;;;79.95;41.47;;;5.40;99.90;;;;;;5077650;28;20071;-83
2021/01/22 03:42:49;;;;;;;71.75;38.28;;;5.40;99.90;;;;;;5077697;28;20028;-84
2021/01/22 03:45:15;;;;;;;73.25;38.25;;;5.40;99.90;;;;;;5095742;28;20032;-83
2021/01/22 03:47:41;;;;;;;78.60;39.05;;;5.40;99.90;;;;;;5096659;28;20039;-84
2021/01/22 03:50:08;;;;;;;76.43;38.85;;;5.40;99.90;;;;;;5100467;28;20028;-83
2021/01/22 03:52:33;;;;;;;80.07;39.17;;;5.40;99.90;;;;;;5095706;28;20074;-83
2021/01/22 03:54:59;;;;;;;75.40;39.97;;;5.50;99.90;;;;;;5090558;28;20024;-83
2021/01/22 03:57:25;;;;;;;75.80;38.95;;;5.50;99.90;;;;;;5057546;28;20039;-83
2021/01/22 03:59:50;;;;;;;81.80;39.20;;;5.50;99.90;;;;;;5057468;28;20089;-83
2021/01/22 04:02:17;;;;;;;73.60;38.55;;;5.50;99.90;;;;;;5057586;28;20055;-83
2021/01/22 04:04:44;;;;;;;81.35;40.63;;;5.50;99.90;;;;;;5057462;28;20021;-83
2021/01/22 04:07:11;;;;;;;82.97;38.30;;;5.50;99.90;;;;;;5062268;28;20031;-83
2021/01/22 04:09:36;;;;;;;69.07;37.25;;;5.50;99.90;;;;;;5077252;28;20440;-83
2021/01/22 04:12:02;;;;;;;72.22;37.75;;;5.50;99.90;;;;;;5077317;28;20058;-83
2021/01/22 04:14:28;;;;;;;82.55;39.92;;;5.50;99.90;;;;;;5077311;28;20024;-84
2021/01/22 04:16:55;;;;;;;80.60;39.53;;;5.50;99.90;;;;;;5077140;28;20080;-83
2021/01/22 04:19:21;;;;;;;81.15;39.83;;;5.50;99.90;;;;;;5092138;28;20080;-84
2021/01/22 04:21:46;;;;;;;74.05;38.55;;;5.50;99.90;;;;;;5115700;28;20028;-83
2021/01/22 04:24:12;;;;;;;71.65;36.80;;;5.50;99.90;;;;;;5115570;28;20035;-83
2021/01/22 04:26:37;;;;;;;74.13;38.75;;;5.50;99.90;;;;;;5097471;28;20032;-83
2021/01/22 04:29:03;;;;;;;73.10;37.17;;;5.50;99.90;;;;;;5115500;28;20015;-83
2021/01/22 04:31:29;;;;;;;75.32;37.20;;;5.50;99.90;;;;;;5115584;28;20107;-83
2021/01/22 04:33:54;;;;;;;75.72;38.22;;;5.50;99.90;;;;;;5097375;28;20012;-84
2021/01/22 04:36:20;;;;;;;72.65;37.47;;;5.50;99.90;;;;;;5097074;28;20085;-84
2021/01/22 04:38:46;;;;;;;71.30;37.08;;;5.60;99.90;;;;;;5096611;28;20023;-84
2021/01/22 04:41:12;;;;;;;76.63;38.63;;;5.60;99.90;;;;;;5115424;28;20098;-84
2021/01/22 04:43:44;;;;;;;68.85;36.35;;;5.60;99.90;;;;;;5088958;28;20044;-83
2021/01/22 04:46:11;;;;;;;72.88;35.78;;;5.60;99.90;;;;;;5073168;28;20114;-83
2021/01/22 04:48:41;;;;;;;75.78;37.47;;;5.60;99.90;;;;;;5085494;28;20442;-83
2021/01/22 04:51:07;;;;;;;71.43;36.22;;;5.60;99.90;;;;;;5096868;28;20038;-83
2021/01/22 04:53:35;;;;;;;71.38;38.20;;;5.60;99.90;;;;;;5081402;28;20057;-83
2021/01/22 04:56:03;;;;;;;80.03;37.15;;;5.50;99.90;;;;;;5094174;28;20542;-83
2021/01/22 04:58:31;;;;;;;71.82;37.83;;;5.60;99.90;;;;;;5076270;28;20031;-83
2021/01/22 05:00:57;;;;;;;75.75;37.85;;;5.50;99.90;;;;;;5094378;28;20031;-83
2021/01/22 05:03:26;;;;;;;71.82;35.17;;;5.50;99.90;;;;;;5075980;28;20029;-82
2021/01/22 05:05:57;;;;;;;68.63;36.28;;;5.50;99.90;;;;;;5076343;28;20105;-84
2021/01/22 05:08:22;;;;;;;74.90;37.63;;;5.50;99.90;;;;;;5094388;28;20028;-83
2021/01/22 05:10:48;;;;;;;71.50;37.25;;;5.50;99.90;;;;;;5094380;28;20028;-83
2021/01/22 05:13:14;;;;;;;69.50;35.53;;;5.50;99.90;;;;;;5076344;28;20047;-83
2021/01/22 05:15:40;;;;;;;83.45;40.10;;;5.50;99.90;;;;;;5094323;28;20469;-83
2021/01/22 05:18:08;;;;;;;71.82;36.35;;;5.50;99.90;;;;;;5094317;28;20030;-80
2021/01/22 05:23:08;;;;;;;76.70;38.00;;;5.50;99.90;;;;;;4897875;22;20141;-84
2021/01/22 05:25:58;;;;;;;64.93;35.85;;;5.40;99.90;;;;;;5093219;28;20017;-80
2021/01/22 05:28:38;;;;;;;77.32;37.33;;;5.50;99.90;;;;;;5075490;28;20024;-80
2021/01/22 05:31:08;;;;;;;74.63;37.45;;;5.50;99.90;;;;;;5074894;28;20531;-80
2021/01/22 05:33:35;;;;;;;75.72;37.80;;;5.50;99.90;;;;;;5074423;28;20016;-82
2021/01/22 05:36:24;;;;;;;73.78;37.63;;;5.50;99.90;;;;;;5073405;28;20420;-81
2021/01/22 05:38:54;;;;;;;73.63;38.08;;;5.50;99.90;;;;;;5089486;28;20019;-81
2021/01/22 05:41:20;;;;;;;69.53;35.92;;;5.50;99.90;;;;;;5055381;28;20033;-81
2021/01/22 05:43:46;;;;;;;71.97;37.15;;;5.50;99.90;;;;;;5055429;28;20024;-81
2021/01/22 05:46:17;;;;;;;73.05;36.28;;;5.50;99.90;;;;;;5055275;28;20389;-81
2021/01/22 05:48:43;;;;;;;74.00;37.50;;;5.50;99.90;;;;;;5063776;28;20043;-82
2021/01/22 05:51:10;;;;;;;67.25;35.10;;;5.50;99.90;;;;;;5065178;28;20060;-81
2021/01/22 05:53:47;;;;;;;66.32;35.75;;;5.50;99.90;;;;;;5060878;28;20082;-81
2021/01/22 05:56:17;;;;;;;71.93;37.50;;;5.50;99.90;;;;;;5061802;28;20023;-81
2021/01/22 05:58:45;;;;;;;79.60;38.03;;;5.50;99.90;;;;;;5075078;28;20020;-81
2021/01/22 06:01:20;;;;;;;76.05;37.53;;;5.50;99.90;;;;;;5059626;28;20039;-81
2021/01/22 06:03:50;;;;;;;77.95;37.70;;;5.50;99.90;;;;;;5055092;28;20054;-81
2021/01/22 06:06:18;;;;;;;73.82;36.30;;;5.50;99.90;;;;;;5054796;28;20119;-79
2021/01/22 06:08:54;;;;;;;73.60;38.65;;;5.50;99.90;;;;;;5072791;28;20549;-81
2021/01/22 06:11:22;;;;;;;76.40;38.13;;;5.60;99.90;;;;;;5055038;28;20389;-81
2021/01/22 06:13:50;;;;;;;69.75;36.15;;;5.60;99.90;;;;;;5089344;28;20020;-81
2021/01/22 06:16:20;;;;;;;69.68;35.88;;;5.60;99.90;;;;;;5095176;28;20081;-82
2021/01/22 06:18:55;;;;;;;66.85;36.45;;;5.60;99.90;;;;;;5081487;28;20113;-82
2021/01/22 06:21:47;;;;;;;75.05;36.75;;;5.60;99.90;;;;;;5085300;28;20692;-81
2021/01/22 06:24:14;;;;;;;62.72;33.17;;;5.60;99.90;;;;;;5074733;28;20028;-82
2021/01/22 06:26:40;;;;;;;61.40;34.58;;;5.60;99.90;;;;;;5074601;28;20032;-81
2021/01/22 06:29:08;;;;;;;72.82;36.28;;;5.60;99.90;;;;;;5074136;28;20531;-81
2021/01/22 06:31:35;;;;;;;68.90;36.17;;;5.60;99.90;;;;;;5074647;28;20126;-81
2021/01/22 06:34:01;;;;;;;70.28;36.05;;;5.60;99.90;;;;;;5074497;28;20031;-82
2021/01/22 06:36:27;;;;;;;72.07;38.60;;;5.60;99.90;;;;;;5074384;28;20029;-81
2021/01/22 06:38:54;;;;;;;71.63;36.72;;;5.60;99.90;;;;;;5074663;28;20389;-81
2021/01/22 06:41:28;;;;;;;69.97;38.17;;;5.60;99.90;;;;;;5074694;28;20028;-81
2021/01/22 06:43:56;;;;;;;70.05;36.47;;;5.60;99.90;;;;;;5092570;28;20020;-81
2021/01/22 06:46:27;;;;;;;75.82;39.75;;;5.60;99.90;;;;;;5091658;28;20031;-81
2021/01/22 06:49:02;;;;;;;75.97;38.53;;;5.60;99.90;;;;;;5066961;28;20547;-81
2021/01/22 06:51:33;;;;;;;68.72;36.60;;;5.60;99.90;;;;;;5054153;28;20032;-81
2021/01/22 06:54:08;;;;;;;77.47;40.35;;;5.60;99.90;;;;;;5072422;28;20044;-81
2021/01/22 06:56:35;;;;;;;75.95;40.50;;;5.60;99.90;;;;;;5054462;28;20032;-81
2021/01/22 06:59:19;;;;;;;74.95;40.17;;;5.60;99.90;;;;;;5072427;28;20020;-81
2021/01/22 07:01:45;;;;;;;89.10;41.78;;;5.60;99.90;;;;;;5055934;28;20029;-82
2021/01/22 07:04:40;;;;;;;84.82;41.20;;;5.60;99.90;;;;;;5076302;28;20025;-82
2021/01/22 07:07:09;;;;;;;68.30;37.33;;;5.60;99.90;;;;;;5058273;28;20108;-81
2021/01/22 07:09:45;;;;;;;84.40;41.92;;;5.60;99.90;;;;;;5058112;28;20120;-81
2021/01/22 07:12:12;;;;;;;82.45;40.92;;;5.60;99.90;;;;;;5058421;28;20493;-81
2021/01/22 07:14:58;;;;;;;75.93;36.42;;;5.60;99.90;;;;;;5058229;28;20031;-81
2021/01/22 07:17:29;;;;;;;84.00;42.65;;;5.60;99.90;;;;;;5059011;28;20458;-82
2021/01/22 07:20:21;;;;;;;87.88;43.30;;;5.60;99.90;;;;;;5066168;28;20024;-81
2021/01/22 07:23:01;;;;;;;78.22;39.90;;;5.60;99.90;;;;;;5099079;28;20035;-81
2021/01/22 07:25:40;;;;;;;91.05;43.28;;;5.60;99.90;;;;;;5080849;28;20028;-81
2021/01/22 07:28:17;;;;;;;88.90;45.00;;;5.60;99.90;;;;;;5097993;28;20481;-79
2021/01/22 07:30:44;;;;;;;91.47;44.65;;;5.60;99.90;;;;;;5090092;28;20036;-81
2021/01/22 07:33:27;;;;;;;89.50;45.75;;;5.60;99.90;;;;;;5098135;28;20529;-81
2021/01/22 07:36:15;;;;;;;85.93;44.55;;;5.60;99.90;;;;;;5057612;28;20041;-81
2021/01/22 07:38:42;;;;;;;91.10;47.78;;;5.60;99.90;;;;;;5059902;28;20024;-82
2021/01/22 07:41:09;;;;;;;89.75;46.90;;;5.60;99.90;;;;;;5065312;28;20030;-81
2021/01/22 07:43:36;;;;;;;94.68;46.75;;;5.60;99.90;;;;;;5077620;28;20044;-81
2021/01/22 07:46:12;;;;;;;84.22;46.15;;;5.60;99.90;;;;;;5078195;28;20550;-81
2021/01/22 07:48:39;;;;;;;90.90;47.42;;;5.60;99.90;;;;;;5077866;28;20036;-81
2021/01/22 07:51:31;;;;;;;83.93;42.58;;;5.60;99.90;;;;;;5060302;28;20094;-81
2021/01/22 07:53:58;;;;;;;91.30;45.08;;;5.60;99.90;;;;;;5094871;28;20028;-83
2021/01/22 07:56:44;;;;;;;85.32;45.65;;;5.60;99.90;;;;;;5094019;28;20019;-81
2021/01/22 07:59:11;;;;;;;91.45;46.42;;;5.70;99.90;;;;;;5093720;28;20548;-83
2021/01/22 08:01:37;;;;;;;85.13;45.45;;;5.70;99.90;;;;;;5094322;28;20027;-82
2021/01/22 08:04:06;;;;;;;90.47;46.75;;;5.70;99.90;;;;;;5102338;28;20077;-81
2021/01/22 08:06:49;;;;;;;85.30;44.63;;;5.70;99.90;;;;;;5072646;28;20046;-81
2021/01/22 08:09:23;;;;;;;;;;;5.70;99.90;;;;;;5073573;28;20037;-82
2021/01/22 08:11:51;;;;;;;92.40;47.58;;;5.70;99.90;;;;;;5072837;28;20011;-81
2021/01/22 08:14:30;;;;;;;87.00;46.88;;;5.70;99.90;;;;;;5073648;28;20020;-82
2021/01/22 08:16:56;;;;;;;86.63;45.83;;;5.70;99.90;;;;;;5074043;28;20032;-82
2021/01/22 08:19:26;;;;;;;84.32;44.83;;;5.70;99.90;;;;;;5072649;28;20032;-80
2021/01/22 08:21:52;;;;;;;87.55;45.17;;;5.70;99.90;;;;;;5073166;28;20543;-79
2021/01/22 08:24:19;;;;;;;87.78;44.72;;;5.70;99.90;;;;;;5074618;28;20069;-80
2021/01/22 08:26:54;;;;;;;88.25;46.35;;;5.70;99.90;;;;;;5093929;28;20058;-81
2021/01/22 08:33:35;;;;;;;89.63;46.63;;;5.70;99.90;;;;;;4934885;29;20078;-82
2021/01/22 08:36:10;;;;;;;90.68;49.05;;;5.70;99.90;;;;;;4997061;28;20039;-80
2021/01/22 08:38:36;;;;;;;102.78;50.22;;;5.80;99.90;;;;;;5092492;28;20086;-82
2021/01/22 08:41:03;;;;;;;98.93;54.28;;;5.80;99.90;;;;;;5086672;28;20012;-79
2021/01/22 08:43:29;;;;;;;104.15;53.05;;;5.70;99.90;;;;;;5091922;28;20149;-82
2021/01/22 08:46:12;;;;;;;101.53;52.78;;;5.80;99.90;;;;;;5091168;28;20041;-79
2021/01/22 08:48:38;;;;;;;94.10;50.28;;;5.80;99.90;;;;;;5090739;28;20047;-80
2021/01/22 08:51:05;;;;;;;99.55;52.13;;;5.80;99.90;;;;;;5090873;28;20419;-79
2021/01/22 08:53:33;;;;;;;94.78;50.95;;;5.80;99.90;;;;;;5092815;28;20161;-79
2021/01/22 08:56:11;;;;;;;104.00;54.67;;;5.90;99.90;;;;;;5075589;28;20035;-80
2021/01/22 08:59:00;;;;;;;30.95;20.17;;;5.90;99.90;;;;;;5093018;28;20027;-80
2021/01/22 09:01:44;;;;;;;78.07;43.08;;;6.30;99.90;;;;;;5096450;28;20031;-80
2021/01/22 09:04:28;;;;;;;94.93;51.10;;;6.30;99.90;;;;;;5090014;28;20028;-81
2021/01/22 09:06:59;;;;;;;98.70;53.33;;;6.20;99.90;;;;;;5092045;28;20030;-79
2021/01/22 09:10:11;;;;;;;99.35;52.42;;;6.10;99.90;;;;;;5072528;28;20020;-77
2021/01/22 09:12:45;;;;;;;93.88;48.75;;;6.10;99.90;;;;;;4987194;28;20064;-81
2021/01/22 09:15:16;;;;;;;88.32;47.80;;;6.10;99.90;;;;;;5072636;28;20065;-77
2021/01/22 09:17:49;;;;;;;87.70;48.53;;;6.10;99.90;;;;;;5072423;28;20412;-78
2021/01/22 09:20:22;;;;;;;104.07;52.90;;;6.10;99.90;;;;;;5080356;28;20023;-79
2021/01/22 09:23:02;;;;;;;104.05;54.20;;;6.10;99.90;;;;;;5093247;28;20058;-79
2021/01/22 09:25:28;;;;;;;113.45;54.25;;;6.10;99.90;;;;;;5092233;28;20016;-77
2021/01/22 09:27:54;;;;;;;111.28;55.00;;;6.10;99.90;;;;;;5093364;28;20022;-76
2021/01/22 09:30:28;;;;;;;101.65;51.05;;;6.00;99.90;;;;;;5093627;28;20396;-77
2021/01/22 09:32:59;;;;;;;103.25;51.75;;;6.10;99.90;;;;;;5111248;28;20052;-78
2021/01/22 09:35:28;;;;;;;103.43;48.93;;;6.00;99.90;;;;;;5093382;28;20028;-77
2021/01/22 09:37:54;;;;;;;92.80;47.25;;;6.00;99.90;;;;;;5092868;28;20023;-76
2021/01/22 09:40:20;;;;;;;90.70;47.42;;;6.00;99.90;;;;;;5079999;28;20078;-77
2021/01/22 09:42:46;;;;;;;88.95;46.58;;;6.10;99.90;;;;;;5068471;28;20031;-79
2021/01/22 09:45:14;;;;;;;99.57;47.78;;;6.10;99.90;;;;;;5068773;28;20032;-77
2021/01/22 09:47:40;;;;;;;90.90;46.17;;;6.10;99.90;;;;;;5069391;28;20024;-77
2021/01/22 09:50:08;;;;;;;81.22;44.08;;;6.10;99.90;;;;;;5069953;28;20028;-77
2021/01/22 09:52:38;;;;;;;99.72;48.17;;;6.10;99.90;;;;;;5069692;28;20119;-77
2021/01/22 09:55:12;;;;;;;92.57;49.03;;;6.10;99.90;;;;;;5070595;28;20036;-77
2021/01/22 09:57:41;;;;;;;104.40;51.33;;;6.20;99.90;;;;;;5068170;28;20035;-77
2021/01/22 10:00:15;;;;;;;122.60;63.05;;;6.20;99.90;;;;;;5070511;28;20024;-77
2021/01/22 10:02:41;;;;;;;115.97;59.70;;;6.20;99.90;;;;;;5067997;28;20024;-78
2021/01/22 10:05:07;;;;;;;115.18;58.75;;;6.30;99.90;;;;;;5069554;28;20090;-77
2021/01/22 10:07:33;;;;;;;110.95;56.90;;;6.30;99.90;;;;;;5068210;28;20028;-78
2021/01/22 10:10:00;;;;;;;102.05;54.33;;;6.30;99.90;;;;;;5068929;28;20151;-78
2021/01/22 10:12:26;;;;;;;109.38;57.28;;;6.30;99.90;;;;;;5088994;28;20369;-78
2021/01/22 10:14:52;;;;;;;109.90;58.08;;;6.40;99.90;;;;;;5110983;28;20035;-77
2021/01/22 10:17:18;;;;;;;114.40;56.67;;;6.40;99.90;;;;;;5109945;28;20023;-78
2021/01/22 10:19:44;;;;;;;112.80;56.28;;;6.40;99.90;;;;;;5071284;28;20028;-78
2021/01/22 10:22:13;;;;;;;107.90;53.92;;;6.40;99.90;;;;;;5070627;28;20039;-78
2021/01/22 10:24:38;;;;;;;104.32;52.88;;;6.50;99.90;;;;;;5072213;28;20111;-77
2021/01/22 10:27:04;;;;;;;105.25;53.70;;;6.50;99.90;;;;;;5071616;28;20127;-77
2021/01/22 10:29:33;;;;;;;107.82;52.40;;;6.50;99.90;;;;;;5073308;28;20032;-78
2021/01/22 10:32:22;;;;;;;96.55;50.28;;;6.50;99.90;;;;;;5073843;28;20020;-78
2021/01/22 10:34:48;;;;;;;101.38;49.97;;;6.50;99.90;;;;;;5091500;28;20524;-78
2021/01/22 10:37:21;;;;;;;100.97;49.63;;;6.50;99.90;;;;;;5075130;28;20086;-78
2021/01/22 10:39:47;;;;;;;92.45;47.40;;;6.60;99.90;;;;;;5095972;28;20020;-78
2021/01/22 10:42:21;;;;;;;100.40;48.47;;;6.60;99.90;;;;;;5094848;28;20024;-78
2021/01/22 10:44:47;;;;;;;94.00;48.08;;;6.60;99.90;;;;;;5077285;28;20119;-78
2021/01/22 10:47:13;;;;;;;94.20;47.97;;;6.60;99.90;;;;;;5076493;28;20074;-78
2021/01/22 10:49:38;;;;;;;90.72;46.92;;;6.60;99.90;;;;;;5094157;28;20716;-78
2021/01/22 10:52:04;;;;;;;97.82;48.75;;;6.60;99.90;;;;;;5073850;28;20629;-79
2021/01/22 10:54:32;;;;;;;97.70;49.50;;;6.60;99.90;;;;;;5085965;28;20082;-79
2021/01/22 10:56:58;;;;;;;98.03;47.25;;;6.60;99.90;;;;;;5063966;28;20024;-79
2021/01/22 10:59:24;;;;;;;97.53;47.15;;;6.60;99.90;;;;;;5094818;28;20031;-79
2021/01/22 11:01:49;;;;;;;97.95;49.67;;;6.60;99.90;;;;;;5073984;28;20488;-79
2021/01/22 11:04:15;;;;;;;84.80;44.17;;;6.50;99.90;;;;;;5075481;28;20023;-79
2021/01/22 11:06:44;;;;;;;89.40;44.78;;;6.50;99.90;;;;;;5084517;28;20072;-80
2021/01/22 11:09:31;;;;;;;100.50;47.63;;;6.40;99.90;;;;;;5096784;28;20053;-79
2021/01/22 11:11:57;;;;;;;92.32;47.63;;;6.40;99.90;;;;;;5096156;28;20023;-79
2021/01/22 11:14:26;;;;;;;87.60;44.67;;;6.30;99.90;;;;;;5114827;28;20571;-79
2021/01/22 11:16:52;;;;;;;85.25;43.47;;;6.30;99.90;;;;;;5079984;28;20408;-80
2021/01/22 11:19:38;;;;;;;74.65;38.30;;;6.30;99.90;;;;;;5058768;28;20028;-80
2021/01/22 11:22:03;;;;;;;78.18;39.63;;;6.40;99.90;;;;;;5064466;28;20111;-79
2021/01/22 11:24:30;;;;;;;77.55;41.22;;;6.40;99.90;;;;;;5076971;28;20103;-79
2021/01/22 11:26:56;;;;;;;75.72;41.22;;;6.40;99.90;;;;;;5069534;28;20489;-78
2021/01/22 11:29:25;;;;;;;62.25;35.97;;;6.40;99.90;;;;;;5073656;28;20024;-79
2021/01/22 11:31:51;;;;;;;52.30;31.60;;;6.40;99.90;;;;;;5065630;28;20032;-78
2021/01/22 11:34:19;;;;;;;48.53;28.95;;;6.40;99.90;;;;;;5066723;28;20111;-78
2021/01/22 11:36:45;;;;;;;52.47;29.42;;;6.40;99.90;;;;;;5074401;28;20027;-78
2021/01/22 11:39:14;;;;;;;45.67;27.83;;;6.40;99.90;;;;;;5075485;28;20378;-78
2021/01/22 11:41:39;;;;;;;41.70;25.02;;;6.40;99.90;;;;;;5070006;28;20016;-78
2021/01/22 11:44:05;;;;;;;38.17;25.95;;;6.50;99.90;;;;;;5090648;28;20092;-78
2021/01/22 11:46:34;;;;;;;41.22;24.50;;;6.50;99.90;;;;;;5065159;28;20024;-78
2021/01/22 11:48:59;;;;;;;42.75;24.83;;;6.50;99.90;;;;;;5090172;28;20032;-78
2021/01/22 11:51:25;;;;;;;44.15;25.20;;;6.50;99.90;;;;;;5088887;28;20392;-78
2021/01/22 11:53:51;;;;;;;37.90;22.48;;;6.50;99.90;;;;;;5056101;28;20493;-77
2021/01/22 11:56:17;;;;;;;33.33;20.90;;;6.50;99.90;;;;;;5068307;28;20566;-78
2021/01/22 11:58:43;;;;;;;39.10;23.15;;;6.50;99.90;;;;;;5080233;28;20651;-78
2021/01/22 12:01:09;;;;;;;34.78;21.20;;;6.60;99.90;;;;;;5070261;28;20031;-78
2021/01/22 12:03:35;;;;;;;32.00;20.58;;;6.60;99.90;;;;;;5073573;28;20036;-78
2021/01/22 12:06:01;;;;;;;26.33;18.17;;;6.60;99.90;;;;;;5054237;28;20456;-78
2021/01/22 12:08:26;;;;;;;27.50;17.40;;;6.70;99.90;;;;;;5055529;28;20032;-77
2021/01/22 12:10:53;;;;;;;28.17;17.95;;;6.70;99.90;;;;;;5053770;28;20058;-79
2021/01/22 12:13:19;;;;;;;25.40;17.67;;;6.80;99.90;;;;;;5056727;28;20085;-79
2021/01/22 12:15:46;;;;;;;27.65;17.90;;;6.80;99.90;;;;;;5056800;28;20378;-79
2021/01/22 12:18:11;;;;;;;43.15;24.30;;;6.80;99.90;;;;;;5080199;28;20024;-79
2021/01/22 12:20:37;;;;;;;48.33;28.25;;;6.80;99.90;;;;;;5077170;28;20027;-79
2021/01/22 12:23:03;;;;;;;60.05;31.08;;;6.80;99.90;;;;;;5095035;28;20194;-79
2021/01/22 12:25:29;;;;;;;67.32;32.20;;;6.80;99.90;;;;;;5076910;28;20059;-79
2021/01/22 12:27:55;;;;;;;61.38;32.28;;;6.70;99.90;;;;;;5076637;28;20023;-79
2021/01/22 12:30:23;;;;;;;57.20;33.30;;;6.60;99.90;;;;;;5070856;28;20028;-80
2021/01/22 12:32:48;;;;;;;62.03;32.50;;;6.60;99.90;;;;;;5110559;28;20038;-79
2021/01/22 12:35:17;;;;;;;57.40;31.25;;;6.60;99.90;;;;;;5071882;28;20032;-79
2021/01/22 12:37:43;;;;;;;61.63;31.30;;;6.60;99.90;;;;;;5050043;28;20176;-79
2021/01/22 12:40:10;;;;;;;59.42;30.85;;;6.50;99.90;;;;;;5072755;28;20424;-79
2021/01/22 12:42:36;;;;;;;55.17;30.13;;;6.50;99.90;;;;;;5080485;28;20044;-79
2021/01/22 12:45:01;;;;;;;49.88;29.38;;;6.50;99.90;;;;;;5086229;28;20036;-80
2021/01/22 12:47:27;;;;;;;48.25;27.05;;;6.50;99.90;;;;;;5076413;28;20043;-79
2021/01/22 12:49:58;;;;;;;46.20;27.67;;;6.50;99.90;;;;;;5076444;28;20063;-79